Time;durP1;ratioP1;P1;durP2;ratioP2;P2;SDS_P1;SDS_P2;PMS_P1;PMS_P2;Temp;Humidity;BMP_temperature;BMP_pressure;BME280_temperature;BME280_humidity;BME280_pressure;Samples;Min_cycle;Max_cycle;Signal;HPM_P1;HPM_P2
2021/01/04 05:24:56;;;;;;;23.77;15.02;;;2.90;99.90;;;;;;5352995;23;20232;-86
2021/01/04 05:27:46;;;;;;;22.63;15.30;;;2.90;99.90;;;;;;5034766;28;20188;-86
2021/01/04 05:30:21;;;;;;;19.85;13.80;;;2.80;99.90;;;;;;5014646;28;20168;-77
2021/01/04 05:33:02;;;;;;;21.25;14.05;;;3.00;99.90;;;;;;5014644;28;20172;-77
2021/01/04 05:35:29;;;;;;;19.90;14.55;;;2.80;99.90;;;;;;5032888;28;20186;-77
2021/01/04 05:38:18;;;;;;;20.52;14.43;;;2.80;99.90;;;;;;5032140;28;20693;-85
2021/01/04 05:41:02;;;;;;;19.65;13.80;;;2.80;99.90;;;;;;5032755;28;20164;-77
2021/01/04 05:43:52;;;;;;;22.48;15.10;;;2.90;99.90;;;;;;5031750;28;20189;-76
2021/01/04 05:46:30;;;;;;;19.95;13.60;;;2.90;99.90;;;;;;5032459;28;20200;-77
2021/01/04 05:49:05;;;;;;;21.25;13.43;;;2.90;99.90;;;;;;5014833;28;20196;-85
2021/01/04 05:51:35;;;;;;;22.30;14.73;;;3.00;99.90;;;;;;5032575;28;20172;-85
2021/01/04 05:54:01;;;;;;;19.70;13.35;;;3.00;99.90;;;;;;5014250;28;20192;-85
2021/01/04 05:56:29;;;;;;;18.48;14.20;;;2.90;99.90;;;;;;5032315;28;20199;-85
2021/01/04 05:59:16;;;;;;;20.95;14.82;;;2.90;99.90;;;;;;5032400;28;20243;-85
2021/01/04 06:01:46;;;;;;;17.33;12.35;;;3.00;99.90;;;;;;5032160;28;20238;-85
2021/01/04 06:04:25;;;;;;;19.75;14.18;;;3.00;99.90;;;;;;5014225;28;20608;-85
2021/01/04 06:07:03;;;;;;;19.88;14.13;;;3.00;99.90;;;;;;5032389;28;20656;-85
2021/01/04 06:09:30;;;;;;;19.52;14.32;;;2.90;99.90;;;;;;5013553;28;20200;-85
2021/01/04 06:11:57;;;;;;;17.67;13.20;;;2.90;99.90;;;;;;5014519;28;20212;-85
2021/01/04 06:14:31;;;;;;;20.20;13.63;;;2.90;99.90;;;;;;5032258;28;20247;-85
2021/01/04 06:17:01;;;;;;;19.33;13.57;;;2.90;99.90;;;;;;5031663;28;20172;-85
2021/01/04 06:19:29;;;;;;;20.90;14.43;;;2.90;99.90;;;;;;5032025;28;20242;-77
2021/01/04 06:22:07;;;;;;;18.60;13.23;;;2.90;99.90;;;;;;5032153;28;20173;-77
2021/01/04 06:24:34;;;;;;;22.85;14.18;;;2.90;99.90;;;;;;5003347;28;20773;-76
2021/01/04 06:27:13;;;;;;;21.38;13.15;;;3.00;99.90;;;;;;4994696;28;20181;-76
2021/01/04 06:29:47;;;;;;;20.10;13.52;;;3.00;99.90;;;;;;5010691;28;20192;-77
2021/01/04 06:32:26;;;;;;;19.50;13.10;;;3.00;99.90;;;;;;5012381;28;20182;-77
2021/01/04 06:34:55;;;;;;;17.75;13.48;;;3.00;99.90;;;;;;5012131;28;20667;-76
2021/01/04 06:37:25;;;;;;;21.40;13.77;;;3.00;99.90;;;;;;5012239;28;20173;-77
2021/01/04 06:40:20;;;;;;;21.52;14.95;;;3.00;99.90;;;;;;5011511;28;20320;-77
2021/01/04 06:42:46;;;;;;;22.63;13.95;;;3.00;99.90;;;;;;5005982;28;20196;-76
2021/01/04 06:45:15;;;;;;;20.55;13.35;;;3.00;99.90;;;;;;4998247;28;20177;-76
2021/01/04 06:47:48;;;;;;;21.13;14.40;;;3.00;99.90;;;;;;4998293;28;20180;-76
2021/01/04 06:50:36;;;;;;;21.67;14.38;;;3.00;99.90;;;;;;5015844;28;20169;-77
2021/01/04 06:53:23;;;;;;;18.50;12.80;;;3.00;99.90;;;;;;5016054;28;20169;-84
2021/01/04 06:55:57;;;;;;;18.83;14.02;;;3.00;99.90;;;;;;5015867;28;20604;-85
2021/01/04 06:58:41;;;;;;;19.88;13.98;;;2.90;99.90;;;;;;4997893;28;20259;-85
2021/01/04 07:01:26;;;;;;;22.23;14.07;;;3.00;99.90;;;;;;5015725;28;20248;-85
2021/01/04 07:04:14;;;;;;;21.27;15.00;;;3.00;99.90;;;;;;5016060;28;20650;-85
2021/01/04 07:06:54;;;;;;;19.90;15.70;;;3.00;99.90;;;;;;5015757;28;20224;-85
2021/01/04 07:09:49;;;;;;;18.98;13.98;;;3.10;99.90;;;;;;5015228;28;20746;-85
2021/01/04 07:12:24;;;;;;;19.85;14.40;;;3.00;99.90;;;;;;5015820;28;20640;-85
2021/01/04 07:15:27;;;;;;;20.25;13.95;;;3.00;99.90;;;;;;4997833;28;20287;-84
2021/01/04 07:18:11;;;;;;;19.80;14.82;;;3.10;99.90;;;;;;5003477;28;20228;-84
2021/01/04 07:21:18;;;;;;;19.70;14.55;;;3.10;99.90;;;;;;5015358;28;20201;-84
2021/01/04 07:24:22;;;;;;;20.15;14.25;;;3.10;99.90;;;;;;5017706;28;20236;-84
2021/01/04 07:27:10;;;;;;;20.50;14.43;;;3.10;99.90;;;;;;5033100;28;20556;-84
2021/01/04 07:30:15;;;;;;;24.45;15.80;;;3.00;99.90;;;;;;5017146;28;20312;-84
2021/01/04 07:32:52;;;;;;;23.27;15.15;;;3.10;99.90;;;;;;5034842;28;20165;-84
2021/01/04 07:35:40;;;;;;;21.38;15.52;;;3.00;99.90;;;;;;5035137;28;20191;-84
2021/01/04 07:38:27;;;;;;;22.40;15.25;;;3.00;99.90;;;;;;5033558;28;20250;-85
2021/01/04 07:41:29;;;;;;;22.35;15.25;;;3.00;99.90;;;;;;5034728;28;20230;-84
2021/01/04 07:44:32;;;;;;;23.45;14.95;;;3.00;99.90;;;;;;5034904;28;20289;-85
2021/01/04 07:47:35;;;;;;;25.58;16.30;;;3.10;99.90;;;;;;5016656;28;20227;-85
2021/01/04 07:50:12;;;;;;;23.75;16.90;;;3.00;99.90;;;;;;5034735;28;20580;-85
2021/01/04 07:53:08;;;;;;;21.88;16.27;;;3.20;99.90;;;;;;5015658;28;20273;-84
2021/01/04 07:56:13;;;;;;;21.27;16.38;;;2.80;99.90;;;;;;5034335;28;20693;-84
2021/01/04 07:58:57;;;;;;;22.98;16.45;;;2.90;99.90;;;;;;4983297;28;20560;-85
2021/01/04 08:02:03;;;;;;;21.85;15.75;;;2.90;99.90;;;;;;5034895;28;20170;-85
2021/01/04 08:04:53;;;;;;;24.63;17.08;;;2.80;99.90;;;;;;5034338;28;20192;-84
2021/01/04 08:07:25;;;;;;;20.40;15.43;;;2.90;99.90;;;;;;5016623;28;20183;-84
2021/01/04 08:10:15;;;;;;;24.73;16.20;;;2.90;99.90;;;;;;5033028;28;20180;-85
2021/01/04 08:13:22;;;;;;;22.90;16.25;;;2.60;99.90;;;;;;5034273;28;20169;-85
2021/01/04 08:16:25;;;;;;;23.65;16.67;;;2.90;99.90;;;;;;5023394;28;20295;-85
2021/01/04 08:18:56;;;;;;;21.67;15.30;;;2.80;99.90;;;;;;5015970;28;20664;-85
2021/01/04 08:21:25;;;;;;;24.45;16.95;;;2.90;99.90;;;;;;5034076;28;20701;-84
2021/01/04 08:23:51;;;;;;;22.55;15.30;;;;;;;;;;5015438;28;20243;-85
2021/01/04 08:26:45;;;;;;;20.73;15.48;;;2.90;99.90;;;;;;5016373;28;20179;-85
2021/01/04 08:29:20;;;;;;;27.75;18.55;;;2.90;99.90;;;;;;5022727;28;20221;-83
2021/01/04 08:31:51;;;;;;;25.92;17.63;;;2.90;99.90;;;;;;5041001;28;20180;-82
2021/01/04 08:34:22;;;;;;;25.65;20.83;;;3.00;99.90;;;;;;5014538;28;20415;-80
2021/01/04 08:36:52;;;;;;;24.73;17.58;;;3.30;99.90;;;;;;5005143;28;20181;-77
2021/01/04 08:39:20;;;;;;;27.42;18.45;;;3.00;99.90;;;;;;5041513;28;20678;-79
2021/01/04 08:42:10;;;;;;;26.17;22.17;;;3.10;99.90;;;;;;5041629;28;20499;-79
2021/01/04 08:44:36;;;;;;;22.17;17.73;;;2.90;99.90;;;;;;5016160;28;20209;-79
2021/01/04 08:47:30;;;;;;;22.65;17.80;;;3.00;99.90;;;;;;5042326;28;20260;-81
2021/01/04 08:50:11;;;;;;;23.17;16.60;;;2.90;99.90;;;;;;5024633;28;20200;-81
2021/01/04 08:52:47;;;;;;;23.63;17.15;;;2.90;99.90;;;;;;5035315;28;20180;-81
2021/01/04 08:55:31;;;;;;;25.25;17.70;;;2.90;99.90;;;;;;5051795;28;20199;-81
2021/01/04 08:58:13;;;;;;;24.70;18.05;;;3.10;99.90;;;;;;5011184;28;20235;-80
2021/01/04 09:00:38;;;;;;;26.95;18.15;;;3.20;99.90;;;;;;5014400;28;20684;-76
2021/01/04 09:03:16;;;;;;;24.85;19.38;;;2.70;99.90;;;;;;5036568;28;20204;-80
2021/01/04 09:05:41;;;;;;;25.67;18.60;;;2.90;99.90;;;;;;5034218;28;20225;-80
2021/01/04 09:08:09;;;;;;;29.40;20.00;;;2.90;99.90;;;;;;5052445;28;20196;-80
2021/01/04 09:10:47;;;;;;;27.63;19.45;;;2.90;99.90;;;;;;5035143;28;20175;-80
2021/01/04 09:13:22;;;;;;;23.83;17.63;;;2.90;99.90;;;;;;5050618;28;20203;-81
2021/01/04 09:15:49;;;;;;;24.73;17.90;;;2.90;99.90;;;;;;5051827;28;20629;-80
2021/01/04 09:18:47;;;;;;;23.10;18.02;;;2.90;99.90;;;;;;5048132;28;20305;-80
2021/01/04 09:21:34;;;;;;;25.05;17.48;;;3.00;99.90;;;;;;5052764;28;20168;-79
2021/01/04 09:24:24;;;;;;;24.58;17.42;;;3.00;99.90;;;;;;5027978;28;20247;-78
2021/01/04 09:27:05;;;;;;;25.23;19.35;;;3.00;99.90;;;;;;5015948;28;20179;-79
2021/01/04 09:29:36;;;;;;;25.38;18.10;;;3.00;99.90;;;;;;5016572;28;20235;-81
2021/01/04 09:32:12;;;;;;;22.80;18.35;;;3.00;99.90;;;;;;4994971;28;20215;-80
2021/01/04 09:34:38;;;;;;;26.63;18.17;;;3.10;99.90;;;;;;5021195;28;20662;-79
2021/01/04 09:37:10;;;;;;;24.98;18.05;;;3.10;99.90;;;;;;5021438;28;20222;-79
2021/01/04 09:39:39;;;;;;;24.90;18.67;;;2.90;99.90;;;;;;5015389;28;20609;-80
2021/01/04 09:42:08;;;;;;;26.55;18.58;;;2.80;99.90;;;;;;5031443;28;20169;-78
2021/01/04 09:44:35;;;;;;;26.05;18.23;;;3.10;99.90;;;;;;5019661;28;20192;-78
2021/01/04 09:47:22;;;;;;;26.08;18.35;;;3.00;99.90;;;;;;5014241;28;20181;-78
2021/01/04 09:49:54;;;;;;;23.50;17.48;;;3.10;99.90;;;;;;5020869;28;20234;-80
2021/01/04 09:52:25;;;;;;;25.85;18.23;;;3.00;99.90;;;;;;5030881;28;20180;-79
2021/01/04 09:54:55;;;;;;;26.95;19.95;;;3.10;99.90;;;;;;5019643;28;20194;-77
2021/01/04 09:57:22;;;;;;;26.38;18.90;;;3.10;99.90;;;;;;5013407;28;20563;-77
2021/01/04 09:59:50;;;;;;;25.00;19.02;;;3.90;99.90;;;;;;5031290;28;20279;-78
2021/01/04 10:02:30;;;;;;;26.88;18.42;;;3.10;99.90;;;;;;5010386;28;20189;-78
2021/01/04 10:05:07;;;;;;;25.30;17.33;;;3.30;99.90;;;;;;5031535;28;20255;-78
2021/01/04 10:07:34;;;;;;;25.92;17.98;;;3.30;99.90;;;;;;5028698;28;20184;-79
2021/01/04 10:10:00;;;;;;;26.58;18.45;;;;;;;;;;5015515;28;20196;-78
2021/01/04 10:12:28;;;;;;;25.92;17.27;;;3.20;99.90;;;;;;5018144;28;20204;-78
2021/01/04 10:14:57;;;;;;;24.05;18.27;;;3.30;99.90;;;;;;5031402;28;20196;-78
2021/01/04 10:17:29;;;;;;;25.88;18.45;;;3.20;99.90;;;;;;5029074;28;20177;-79
2021/01/04 10:19:57;;;;;;;27.23;19.13;;;3.20;99.90;;;;;;5031439;28;20200;-79
2021/01/04 10:22:33;;;;;;;27.15;19.65;;;3.10;99.90;;;;;;5031133;28;20526;-78
2021/01/04 10:25:30;;;;;;;27.05;19.05;;;3.10;99.90;;;;;;5017418;28;20228;-78
2021/01/04 10:27:58;;;;;;;27.90;19.17;;;3.10;99.90;;;;;;5026619;28;20185;-79
2021/01/04 10:30:25;;;;;;;28.23;19.83;;;3.20;99.90;;;;;;5029957;28;20176;-78
2021/01/04 10:33:08;;;;;;;27.08;19.60;;;3.20;99.90;;;;;;5029549;28;20188;-78
2021/01/04 10:35:34;;;;;;;26.92;18.67;;;3.20;99.90;;;;;;5030961;28;20164;-78
2021/01/04 10:38:12;;;;;;;25.52;18.75;;;3.20;99.90;;;;;;5029566;28;20211;-78
2021/01/04 10:40:44;;;;;;;26.75;19.85;;;3.20;99.90;;;;;;5018941;28;20535;-78
2021/01/04 10:43:10;;;;;;;24.13;18.73;;;3.20;99.90;;;;;;5019158;28;20197;-80
2021/01/04 10:45:39;;;;;;;25.90;18.05;;;3.20;99.90;;;;;;5017252;28;20177;-80
2021/01/04 10:48:29;;;;;;;26.13;18.45;;;3.20;99.90;;;;;;5029770;28;20197;-79
2021/01/04 10:50:58;;;;;;;27.60;19.95;;;3.20;99.90;;;;;;5008831;28;20719;-80
2021/01/04 10:53:37;;;;;;;28.38;20.23;;;3.20;99.90;;;;;;5028772;28;20215;-80
2021/01/04 10:56:08;;;;;;;24.38;18.20;;;3.20;99.90;;;;;;5025659;28;20168;-77
2021/01/04 10:58:46;;;;;;;25.98;19.40;;;3.30;99.90;;;;;;5031127;28;20217;-78
2021/01/04 11:01:19;;;;;;;28.17;18.80;;;3.30;99.90;;;;;;5031530;28;20180;-78
2021/01/04 11:03:57;;;;;;;25.67;18.80;;;3.30;99.90;;;;;;5014114;28;20231;-78
2021/01/04 11:06:32;;;;;;;25.58;18.42;;;3.30;99.90;;;;;;5028765;28;20203;-78
2021/01/04 11:08:58;;;;;;;25.98;18.05;;;3.30;99.90;;;;;;5030812;28;20192;-77
2021/01/04 11:11:42;;;;;;;25.58;18.88;;;3.30;99.90;;;;;;5029755;28;20623;-80
2021/01/04 11:14:23;;;;;;;30.13;19.42;;;3.20;99.90;;;;;;5030844;28;20556;-81
2021/01/04 11:16:51;;;;;;;26.35;20.02;;;3.30;99.90;;;;;;5020320;28;20175;-82
2021/01/04 11:19:32;;;;;;;26.70;19.80;;;3.20;99.90;;;;;;5012179;28;20325;-80
2021/01/04 11:22:27;;;;;;;27.27;18.13;;;3.20;99.90;;;;;;5028425;28;20260;-80
2021/01/04 11:24:55;;;;;;;30.50;20.08;;;3.30;99.90;;;;;;4992223;28;20323;-79
2021/01/04 11:27:22;;;;;;;29.65;21.45;;;3.20;99.90;;;;;;5014054;28;20646;-80
2021/01/04 11:29:48;;;;;;;28.08;20.80;;;3.80;99.90;;;;;;5035090;28;20269;-80
2021/01/04 11:32:16;;;;;;;28.10;19.40;;;3.30;99.90;;;;;;5034900;28;20176;-79
2021/01/04 11:34:46;;;;;;;29.33;19.90;;;3.30;99.90;;;;;;5027173;28;20204;-77
2021/01/04 11:37:17;;;;;;;33.08;19.95;;;3.30;99.90;;;;;;5022976;28;20192;-77
2021/01/04 11:39:43;;;;;;;30.27;19.98;;;3.30;99.90;;;;;;5032308;28;20220;-77
2021/01/04 11:42:10;;;;;;;29.42;21.20;;;3.30;99.90;;;;;;5032534;28;20619;-77
2021/01/04 11:44:36;;;;;;;29.52;20.80;;;3.30;99.90;;;;;;5007758;28;20219;-76
2021/01/04 11:47:03;;;;;;;28.60;20.70;;;3.20;99.90;;;;;;5032968;28;20278;-77
2021/01/04 11:49:29;;;;;;;32.42;20.88;;;3.30;99.90;;;;;;5030998;28;20520;-77
2021/01/04 11:51:56;;;;;;;31.75;21.20;;;3.50;99.90;;;;;;5033506;28;20179;-77
2021/01/04 11:54:22;;;;;;;27.73;20.27;;;3.20;99.90;;;;;;5032180;28;20192;-77
2021/01/04 11:56:49;;;;;;;31.02;20.73;;;3.10;99.90;;;;;;5018304;28;20173;-77
2021/01/04 11:59:15;;;;;;;28.13;20.27;;;3.10;99.90;;;;;;5030100;28;20615;-77
2021/01/04 12:01:41;;;;;;;28.08;18.70;;;3.00;99.90;;;;;;5020193;28;20183;-76
2021/01/04 12:04:08;;;;;;;29.20;20.50;;;3.30;99.90;;;;;;5021096;28;20192;-76
2021/01/04 12:06:35;;;;;;;29.10;20.90;;;3.00;99.90;;;;;;5021842;28;20168;-76
2021/01/04 12:09:02;;;;;;;28.98;19.38;;;3.30;99.90;;;;;;4995479;28;20208;-77
2021/01/04 12:11:33;;;;;;;27.50;19.00;;;3.60;99.90;;;;;;4995976;28;20174;-77
2021/01/04 12:13:59;;;;;;;29.13;20.00;;;3.40;99.90;;;;;;5024677;28;20200;-76
2021/01/04 12:16:28;;;;;;;25.90;19.33;;;3.80;99.90;;;;;;5014974;28;20635;-76
2021/01/04 12:18:54;;;;;;;28.70;20.50;;;3.20;99.90;;;;;;5033368;28;20208;-77
2021/01/04 12:21:22;;;;;;;30.90;20.67;;;3.30;99.90;;;;;;5033010;28;20355;-80
2021/01/04 12:23:48;;;;;;;33.63;21.48;;;3.30;99.90;;;;;;5012323;28;20243;-81
2021/01/04 12:26:13;;;;;;;29.20;19.35;;;3.20;99.90;;;;;;5023812;28;20165;-81
2021/01/04 12:28:39;;;;;;;28.08;19.48;;;3.20;99.90;;;;;;5022917;28;20204;-80
2021/01/04 12:31:05;;;;;;;24.95;19.17;;;3.30;99.90;;;;;;5008143;28;20181;-82
2021/01/04 12:33:31;;;;;;;26.55;19.33;;;3.40;99.90;;;;;;5032204;28;20208;-81
2021/01/04 12:35:57;;;;;;;29.38;19.60;;;3.30;99.90;;;;;;5029622;28;20169;-83
2021/01/04 12:38:22;;;;;;;34.58;21.27;;;3.20;99.90;;;;;;5031854;28;20223;-82
2021/01/04 12:40:50;;;;;;;28.38;20.05;;;2.80;99.90;;;;;;5011753;28;20173;-83
2021/01/04 12:43:15;;;;;;;28.52;20.92;;;3.00;99.90;;;;;;5032658;28;20196;-82
2021/01/04 12:45:41;;;;;;;28.55;20.63;;;3.20;99.90;;;;;;5032846;28;20176;-81
2021/01/04 12:48:07;;;;;;;33.42;20.67;;;3.20;99.90;;;;;;5033453;28;20196;-80
2021/01/04 12:50:33;;;;;;;29.83;21.00;;;3.30;99.90;;;;;;5029637;28;20204;-81
2021/01/04 12:52:59;;;;;;;32.50;20.90;;;3.40;99.90;;;;;;5031933;28;20184;-79
2021/01/04 12:55:25;;;;;;;28.92;20.60;;;;;;;;;;5031183;28;20234;-81
2021/01/04 12:57:50;;;;;;;31.60;20.95;;;3.50;99.90;;;;;;5030547;28;20582;-79
2021/01/04 13:00:23;;;;;;;27.13;20.23;;;3.20;99.90;;;;;;5032837;28;20184;-81
2021/01/04 13:02:50;;;;;;;26.77;18.77;;;3.40;99.90;;;;;;5033207;28;20212;-80
2021/01/04 13:05:16;;;;;;;29.27;20.08;;;3.30;99.90;;;;;;5032848;28;20642;-82
2021/01/04 13:07:42;;;;;;;26.75;19.17;;;3.20;99.90;;;;;;5030065;28;20238;-84
2021/01/04 13:10:10;;;;;;;29.42;19.98;;;3.10;99.90;;;;;;5032371;28;20193;-80
2021/01/04 13:12:36;;;;;;;27.35;19.98;;;3.50;99.90;;;;;;5015265;28;20557;-82
2021/01/04 13:15:04;;;;;;;32.88;20.88;;;3.50;99.90;;;;;;5014984;28;20230;-81
2021/01/04 13:17:29;;;;;;;27.65;19.45;;;3.30;99.90;;;;;;5032624;28;20176;-82
2021/01/04 13:19:55;;;;;;;29.75;21.25;;;3.40;99.90;;;;;;5032806;28;20589;-82
2021/01/04 13:22:21;;;;;;;29.40;19.83;;;3.50;99.90;;;;;;5032788;28;20639;-83
2021/01/04 13:24:46;;;;;;;33.97;20.13;;;3.40;99.90;;;;;;5025500;28;20228;-83
2021/01/04 13:27:12;;;;;;;28.00;20.92;;;3.40;99.90;;;;;;5031957;28;20185;-82
2021/01/04 13:29:38;;;;;;;27.13;20.50;;;3.40;99.90;;;;;;5025367;28;20191;-79
2021/01/04 13:32:06;;;;;;;29.65;21.42;;;3.20;99.90;;;;;;5042434;28;20731;-82
2021/01/04 13:34:33;;;;;;;30.85;21.92;;;3.40;99.90;;;;;;5029566;28;20230;-79
2021/01/04 13:37:00;;;;;;;29.70;20.77;;;3.50;99.90;;;;;;5032214;28;20186;-83
2021/01/04 13:39:26;;;;;;;27.92;19.73;;;3.20;99.90;;;;;;5013868;28;20303;-81
2021/01/04 13:41:53;;;;;;;33.13;20.45;;;3.60;99.90;;;;;;5032126;28;20168;-84
2021/01/04 13:44:20;;;;;;;28.15;20.15;;;3.20;99.90;;;;;;5032202;28;20242;-84
2021/01/04 13:46:47;;;;;;;29.98;19.95;;;3.30;99.90;;;;;;5014422;28;20267;-83
2021/01/04 13:49:12;;;;;;;31.50;20.63;;;3.40;99.90;;;;;;5014212;28;20280;-83
2021/01/04 13:51:38;;;;;;;27.25;20.20;;;3.50;99.90;;;;;;5013762;28;20447;-83
2021/01/04 13:54:04;;;;;;;30.52;19.60;;;3.50;99.90;;;;;;5013319;28;20196;-76
2021/01/04 13:56:29;;;;;;;27.05;18.15;;;3.60;99.90;;;;;;5013994;28;20208;-83
2021/01/04 13:58:55;;;;;;;28.02;18.98;;;3.70;99.90;;;;;;5025817;28;20260;-80
2021/01/04 14:01:25;;;;;;;27.60;18.23;;;3.50;99.90;;;;;;5012031;28;20205;-83
2021/01/04 14:03:51;;;;;;;24.40;17.42;;;3.50;99.90;;;;;;5012287;28;20264;-83
2021/01/04 14:06:19;;;;;;;25.88;16.25;;;3.50;99.90;;;;;;5021349;28;20172;-80
2021/01/04 14:08:45;;;;;;;19.65;13.50;;;3.50;99.90;;;;;;5019923;28;20299;-82
2021/01/04 14:11:19;;;;;;;22.02;13.68;;;3.50;99.90;;;;;;5029486;28;20161;-82
2021/01/04 14:13:45;;;;;;;17.15;11.82;;;3.50;99.90;;;;;;5032303;28;20192;-82
2021/01/04 14:16:11;;;;;;;18.85;12.57;;;3.50;99.90;;;;;;5033929;28;20168;-83
2021/01/04 14:18:36;;;;;;;18.17;11.82;;;3.50;99.90;;;;;;5031952;28;20222;-82
2021/01/04 14:21:04;;;;;;;16.67;11.45;;;3.40;99.90;;;;;;5031956;28;20187;-83
2021/01/04 14:23:29;;;;;;;18.83;11.82;;;3.40;99.90;;;;;;5031433;28;20740;-84
2021/01/04 14:25:55;;;;;;;15.52;11.68;;;3.40;99.90;;;;;;5033040;28;20172;-83
2021/01/04 14:28:21;;;;;;;17.65;11.98;;;3.20;99.90;;;;;;5014973;28;20700;-83
2021/01/04 14:30:47;;;;;;;17.35;11.80;;;3.40;99.90;;;;;;5031805;28;20168;-83
2021/01/04 14:33:14;;;;;;;16.58;11.60;;;3.40;99.90;;;;;;5014017;28;20466;-82
2021/01/04 14:35:40;;;;;;;15.82;11.02;;;3.40;99.90;;;;;;5014162;28;20180;-85
2021/01/04 14:38:07;;;;;;;20.08;10.75;;;3.50;99.90;;;;;;5013455;28;20219;-85
2021/01/04 14:40:33;;;;;;;16.25;10.85;;;3.50;99.90;;;;;;5028092;28;20455;-85
2021/01/04 14:42:59;;;;;;;15.68;11.32;;;3.50;99.90;;;;;;5030140;28;20332;-82
2021/01/04 14:45:26;;;;;;;22.05;12.50;;;3.50;99.90;;;;;;5030828;28;20231;-84
2021/01/04 14:47:52;;;;;;;17.67;11.95;;;3.40;99.90;;;;;;5015714;28;20216;-83
2021/01/04 14:50:18;;;;;;;17.77;13.02;;;3.50;99.90;;;;;;5015636;28;20179;-84
2021/01/04 14:52:44;;;;;;;17.75;12.10;;;3.40;99.90;;;;;;5029266;28;20184;-83
2021/01/04 14:55:09;;;;;;;19.35;11.80;;;3.40;99.90;;;;;;5011398;28;20173;-84
2021/01/04 14:57:35;;;;;;;15.70;11.75;;;3.40;99.90;;;;;;5030414;28;20195;-84
2021/01/04 15:00:01;;;;;;;21.95;12.65;;;3.40;99.90;;;;;;5028062;28;20681;-84
2021/01/04 15:02:27;;;;;;;20.23;12.45;;;3.50;99.90;;;;;;5031451;28;20188;-83
2021/01/04 15:04:52;;;;;;;17.70;11.10;;;3.40;99.90;;;;;;5035548;28;20602;-82
2021/01/04 15:07:18;;;;;;;16.52;10.88;;;3.80;99.90;;;;;;5035345;28;20224;-83
2021/01/04 15:09:49;;;;;;;17.30;11.40;;;3.50;99.90;;;;;;5034755;28;20681;-83
2021/01/04 15:12:17;;;;;;;17.48;12.02;;;3.50;99.90;;;;;;5035209;28;20188;-83
2021/01/04 15:14:43;;;;;;;19.77;12.10;;;3.50;99.90;;;;;;5035250;28;20547;-83
2021/01/04 15:17:10;;;;;;;15.73;10.85;;;3.50;99.90;;;;;;5017407;28;20205;-83
2021/01/04 15:19:36;;;;;;;17.60;12.30;;;3.60;99.90;;;;;;5035130;28;20295;-82
2021/01/04 15:22:02;;;;;;;17.65;11.88;;;3.50;99.90;;;;;;5035441;28;20251;-83
2021/01/04 15:24:28;;;;;;;19.23;11.88;;;3.50;99.90;;;;;;5016346;28;20593;-83
2021/01/04 15:26:53;;;;;;;17.63;11.98;;;3.60;99.90;;;;;;5017138;28;20181;-82
2021/01/04 15:29:19;;;;;;;16.55;12.13;;;3.50;99.90;;;;;;5017201;28;20227;-82
2021/01/04 15:31:50;;;;;;;18.30;12.20;;;3.50;99.90;;;;;;5017148;28;20215;-83
2021/01/04 15:34:18;;;;;;;15.88;11.75;;;3.50;99.90;;;;;;5035173;28;20250;-83
2021/01/04 15:36:49;;;;;;;17.48;12.43;;;3.50;99.90;;;;;;5016843;28;20263;-83
2021/01/04 15:39:15;;;;;;;16.13;12.38;;;3.50;99.90;;;;;;5016693;28;20585;-82
2021/01/04 15:41:41;;;;;;;15.98;11.77;;;3.50;99.90;;;;;;5017111;28;20175;-82
2021/01/04 15:44:07;;;;;;;19.15;12.48;;;3.50;99.90;;;;;;5034791;28;20185;-83
2021/01/04 15:46:34;;;;;;;19.30;14.30;;;3.50;99.90;;;;;;5034967;28;20180;-83
2021/01/04 15:49:00;;;;;;;25.08;17.95;;;3.50;99.90;;;;;;5016835;28;20196;-82
2021/01/04 15:51:26;;;;;;;24.73;18.10;;;3.50;99.90;;;;;;5034485;28;20169;-80
2021/01/04 15:53:54;;;;;;;29.40;19.88;;;3.50;99.90;;;;;;5034111;28;20195;-82
2021/01/04 15:56:20;;;;;;;29.17;20.35;;;3.40;99.90;;;;;;5016804;28;20173;-82
2021/01/04 15:58:45;;;;;;;31.17;20.17;;;3.60;99.90;;;;;;5016216;28;20255;-82
2021/01/04 16:01:11;;;;;;;28.63;20.30;;;3.80;99.90;;;;;;5034573;28;20204;-82
2021/01/04 16:03:37;;;;;;;31.27;22.25;;;3.40;99.90;;;;;;5032973;28;20956;-82
2021/01/04 16:06:03;;;;;;;30.77;21.75;;;3.40;99.90;;;;;;5034011;28;20172;-82
2021/01/04 16:08:31;;;;;;;28.35;19.67;;;3.40;99.90;;;;;;5034158;28;20203;-83
2021/01/04 16:10:57;;;;;;;27.27;18.35;;;3.40;99.90;;;;;;5029748;28;20184;-82
2021/01/04 16:13:22;;;;;;;24.35;17.08;;;3.50;99.90;;;;;;5032204;28;20634;-82
2021/01/04 16:15:48;;;;;;;26.42;18.00;;;3.40;99.90;;;;;;5034522;28;20177;-82
2021/01/04 16:18:14;;;;;;;30.70;17.98;;;3.50;99.90;;;;;;5013329;28;20209;-82
2021/01/04 16:20:40;;;;;;;28.25;18.85;;;3.50;99.90;;;;;;4999380;28;20188;-81
2021/01/04 16:23:05;;;;;;;26.30;18.17;;;3.40;99.90;;;;;;5033566;28;20191;-81
2021/01/04 16:25:31;;;;;;;31.05;17.55;;;3.50;99.90;;;;;;5016343;28;20290;-81
2021/01/04 16:27:58;;;;;;;27.70;18.23;;;3.40;99.90;;;;;;5034606;28;20219;-81
2021/01/04 16:30:24;;;;;;;23.42;16.75;;;3.40;99.90;;;;;;5033556;28;20188;-80
2021/01/04 16:32:50;;;;;;;26.67;16.85;;;3.40;99.90;;;;;;5016179;28;20173;-80
2021/01/04 16:35:15;;;;;;;27.02;17.90;;;3.40;99.90;;;;;;5033908;28;20736;-81
2021/01/04 16:37:42;;;;;;;24.27;16.88;;;3.40;99.90;;;;;;5035034;28;20264;-84
2021/01/04 16:40:09;;;;;;;25.15;16.55;;;3.40;99.90;;;;;;5015575;28;20244;-78
2021/01/04 16:42:35;;;;;;;24.67;16.15;;;3.40;99.90;;;;;;5015757;28;20180;-74
2021/01/04 16:45:00;;;;;;;21.70;15.75;;;3.30;99.90;;;;;;5032639;28;20611;-74
2021/01/04 16:47:26;;;;;;;22.55;15.20;;;3.40;99.90;;;;;;5033010;28;20177;-76
2021/01/04 16:49:52;;;;;;;20.92;14.10;;;3.40;99.90;;;;;;5009069;28;20263;-75
2021/01/04 16:52:23;;;;;;;20.77;14.85;;;3.40;99.90;;;;;;5032068;28;20169;-76
2021/01/04 16:54:49;;;;;;;19.10;12.98;;;3.50;99.90;;;;;;5015042;28;20207;-80
2021/01/04 16:57:18;;;;;;;23.63;14.05;;;3.40;99.90;;;;;;5032732;28;20188;-81
2021/01/04 16:59:45;;;;;;;17.50;12.75;;;3.40;99.90;;;;;;5033664;28;20212;-79
2021/01/04 17:02:11;;;;;;;18.55;13.10;;;3.40;99.90;;;;;;5015483;28;20259;-80
2021/01/04 17:04:44;;;;;;;20.50;12.88;;;3.50;99.90;;;;;;5033614;28;20196;-80
2021/01/04 17:07:12;;;;;;;19.25;12.93;;;3.40;99.90;;;;;;5032472;28;20655;-78
2021/01/04 17:09:39;;;;;;;21.38;13.43;;;3.50;99.90;;;;;;5013891;28;20332;-80
2021/01/04 17:12:06;;;;;;;20.52;14.15;;;3.40;99.90;;;;;;5032199;28;20223;-78
2021/01/04 17:14:32;;;;;;;25.67;14.77;;;3.30;99.90;;;;;;5032135;28;20791;-80
2021/01/04 17:16:58;;;;;;;21.27;14.57;;;3.20;99.90;;;;;;5031771;28;20647;-80
2021/01/04 17:19:25;;;;;;;19.90;13.98;;;3.40;99.90;;;;;;5032036;28;20705;-80
2021/01/04 17:21:54;;;;;;;19.30;13.10;;;3.20;99.90;;;;;;5032154;28;20193;-78
2021/01/04 17:24:20;;;;;;;19.90;13.18;;;3.50;99.90;;;;;;5010618;28;20308;-78
2021/01/04 17:26:46;;;;;;;19.80;12.82;;;3.40;99.90;;;;;;5011966;28;20240;-78
2021/01/04 17:29:13;;;;;;;22.23;12.95;;;3.60;99.90;;;;;;4995007;28;20193;-78
2021/01/04 17:31:39;;;;;;;19.63;12.98;;;3.40;99.90;;;;;;5012094;28;20169;-79
2021/01/04 17:34:06;;;;;;;19.80;12.60;;;3.80;99.90;;;;;;4994765;28;20202;-76
2021/01/04 17:36:32;;;;;;;22.23;13.88;;;3.40;99.90;;;;;;4992349;28;20200;-77
2021/01/04 17:38:59;;;;;;;20.02;13.75;;;3.40;99.90;;;;;;4994507;28;20217;-80
2021/01/04 17:41:29;;;;;;;18.15;13.32;;;3.40;99.90;;;;;;5012913;28;20173;-83
2021/01/04 17:43:57;;;;;;;23.08;14.07;;;3.40;99.90;;;;;;4993652;28;20205;-85
2021/01/04 17:46:35;;;;;;;19.70;13.52;;;3.40;99.90;;;;;;4994746;28;20241;-83
2021/01/04 17:49:00;;;;;;;19.45;13.80;;;3.30;99.90;;;;;;5013746;28;20223;-81
2021/01/04 17:51:26;;;;;;;22.92;14.45;;;3.40;99.90;;;;;;4997431;28;20181;-86
2021/01/04 17:53:53;;;;;;;21.13;12.98;;;3.40;99.90;;;;;;5003236;28;20572;-83
2021/01/04 17:56:20;;;;;;;19.58;12.93;;;3.50;99.90;;;;;;4997420;28;20169;-85
2021/01/04 17:58:45;;;;;;;20.35;13.57;;;3.40;99.90;;;;;;4995335;28;20371;-85
2021/01/04 18:01:11;;;;;;;18.67;13.65;;;3.50;99.90;;;;;;4987955;28;20206;-83
2021/01/04 18:03:37;;;;;;;21.58;13.75;;;3.40;99.90;;;;;;4988240;28;20731;-88
2021/01/04 18:06:03;;;;;;;22.58;14.40;;;3.40;99.90;;;;;;4987247;28;20256;-83
2021/01/04 18:08:29;;;;;;;22.00;13.77;;;3.40;99.90;;;;;;4990337;28;20193;-84
2021/01/04 18:10:54;;;;;;;19.85;13.63;;;3.40;99.90;;;;;;5011167;28;20536;-84
2021/01/04 18:13:20;;;;;;;21.80;13.82;;;3.40;99.90;;;;;;5010717;28;20583;-88
2021/01/04 18:15:46;;;;;;;20.15;13.43;;;3.40;99.90;;;;;;4988980;28;20719;-82
2021/01/04 18:18:12;;;;;;;21.42;13.48;;;3.40;99.90;;;;;;5011470;28;20237;-85
2021/01/04 18:20:38;;;;;;;21.77;14.00;;;3.40;99.90;;;;;;4992159;28;20181;-83
2021/01/04 18:23:04;;;;;;;23.90;15.18;;;3.50;99.90;;;;;;5011688;28;20189;-85
2021/01/04 18:25:29;;;;;;;21.65;14.07;;;3.40;99.90;;;;;;5006696;28;20286;-88